Time;durP1;ratioP1;P1;durP2;ratioP2;P2;SDS_P1;SDS_P2;PMS_P1;PMS_P2;Temp;Humidity;BMP_temperature;BMP_pressure;BME280_temperature;BME280_humidity;BME280_pressure;Samples;Min_cycle;Max_cycle;Signal;HPM_P1;HPM_P2
2021/10/06 00:01:40;;;;;;;9.90;6.68;;;11.60;80.20;;;;;;5063087;28;20055;-75
2021/10/06 00:04:06;;;;;;;8.93;6.20;;;11.60;80.20;;;;;;5040947;28;20037;-75
2021/10/06 00:06:32;;;;;;;9.50;6.38;;;11.50;80.50;;;;;;5058661;28;20049;-75
2021/10/06 00:08:58;;;;;;;12.48;6.35;;;11.50;80.70;;;;;;5069401;28;20104;-75
2021/10/06 00:11:24;;;;;;;8.77;6.05;;;11.50;80.90;;;;;;5054740;28;20103;-75
2021/10/06 00:13:51;;;;;;;10.65;6.45;;;11.50;80.80;;;;;;5062946;28;20060;-75
2021/10/06 00:16:17;;;;;;;13.20;6.50;;;11.40;80.60;;;;;;5045021;28;20039;-76
2021/10/06 00:18:44;;;;;;;10.35;6.47;;;11.40;80.80;;;;;;5039522;28;20033;-75
2021/10/06 00:21:10;;;;;;;10.27;6.60;;;11.40;80.90;;;;;;5046891;28;20032;-75
2021/10/06 00:23:36;;;;;;;10.98;6.97;;;11.40;81.10;;;;;;5067514;28;20037;-75
2021/10/06 00:26:03;;;;;;;8.48;6.63;;;11.30;81.40;;;;;;5055863;28;20104;-75
2021/10/06 00:28:29;;;;;;;10.80;6.03;;;11.30;81.60;;;;;;5042959;28;20387;-75
2021/10/06 00:30:56;;;;;;;10.00;6.53;;;11.30;82.10;;;;;;5054118;28;20033;-76
2021/10/06 00:33:21;;;;;;;10.20;6.95;;;11.30;82.40;;;;;;5040100;28;20386;-75
2021/10/06 00:35:47;;;;;;;12.18;6.47;;;11.20;82.60;;;;;;5040239;28;20057;-75
2021/10/06 00:38:13;;;;;;;10.85;6.75;;;11.30;82.70;;;;;;5062410;28;20063;-74
2021/10/06 00:40:39;;;;;;;10.07;6.85;;;11.20;82.80;;;;;;5054167;28;20076;-75
2021/10/06 00:43:05;;;;;;;9.43;6.43;;;11.20;83.10;;;;;;5036199;28;20029;-76
2021/10/06 00:45:30;;;;;;;10.65;6.82;;;11.20;83.40;;;;;;5069750;28;20387;-75
2021/10/06 00:47:56;;;;;;;9.73;6.60;;;11.20;83.80;;;;;;5061284;28;20032;-75
2021/10/06 00:50:22;;;;;;;11.65;6.50;;;11.20;83.90;;;;;;5062672;28;20035;-75
2021/10/06 00:52:48;;;;;;;10.27;6.40;;;11.20;84.20;;;;;;5053782;28;20103;-75
2021/10/06 00:55:15;;;;;;;9.63;6.55;;;11.10;84.50;;;;;;5061780;28;20026;-75
2021/10/06 00:57:41;;;;;;;9.57;6.78;;;11.10;84.80;;;;;;5036109;28;20468;-75
2021/10/06 01:00:08;;;;;;;9.18;6.28;;;11.10;85.00;;;;;;5051664;28;20037;-75
2021/10/06 01:02:34;;;;;;;11.18;6.80;;;11.10;85.20;;;;;;5053596;28;20041;-75
2021/10/06 01:05:00;;;;;;;10.27;6.53;;;11.10;85.60;;;;;;5053813;28;20028;-75
2021/10/06 01:07:26;;;;;;;13.30;7.40;;;11.10;85.80;;;;;;5054744;28;20138;-75
2021/10/06 01:09:52;;;;;;;11.07;7.30;;;11.10;86.40;;;;;;5060638;28;20108;-75
2021/10/06 01:12:19;;;;;;;33.25;14.90;;;11.00;86.10;;;;;;5053758;28;20021;-75
2021/10/06 01:14:46;;;;;;;12.98;8.18;;;11.10;86.30;;;;;;5053407;28;20052;-75
2021/10/06 01:17:12;;;;;;;10.90;6.57;;;11.00;86.60;;;;;;5053734;28;20079;-75
2021/10/06 01:19:38;;;;;;;9.70;6.68;;;11.00;86.80;;;;;;5036960;28;20037;-76
2021/10/06 01:22:04;;;;;;;9.85;6.78;;;11.00;86.90;;;;;;5060709;28;20068;-75
2021/10/06 01:24:30;;;;;;;11.77;6.85;;;11.00;86.90;;;;;;5061509;28;20025;-76
2021/10/06 01:26:58;;;;;;;12.55;6.88;;;10.90;86.90;;;;;;5051973;28;20047;-75
2021/10/06 01:29:24;;;;;;;15.63;6.90;;;10.90;86.70;;;;;;5053594;28;20036;-75
2021/10/06 01:31:50;;;;;;;9.80;6.57;;;10.90;86.70;;;;;;5034704;28;20070;-74
2021/10/06 01:34:18;;;;;;;10.25;6.88;;;10.90;86.70;;;;;;5048913;28;20025;-75
2021/10/06 01:36:47;;;;;;;10.77;7.28;;;10.80;86.70;;;;;;5058344;28;20025;-75
2021/10/06 01:39:13;;;;;;;8.95;6.80;;;10.80;87.10;;;;;;5058193;28;20055;-75
2021/10/06 01:41:39;;;;;;;9.38;7.13;;;10.80;87.40;;;;;;5064168;28;20466;-76
2021/10/06 01:44:05;;;;;;;11.85;7.50;;;10.70;87.30;;;;;;5035276;28;20029;-75
2021/10/06 01:46:31;;;;;;;10.63;7.35;;;10.70;87.80;;;;;;5035245;28;20029;-75
2021/10/06 01:48:57;;;;;;;9.50;6.47;;;10.70;88.00;;;;;;5035136;28;20029;-75
2021/10/06 01:51:24;;;;;;;9.70;7.35;;;10.70;88.50;;;;;;5053240;28;20036;-75
2021/10/06 01:53:50;;;;;;;9.00;6.53;;;10.70;89.00;;;;;;5053178;28;20033;-75
2021/10/06 01:56:16;;;;;;;15.10;9.27;;;10.60;89.00;;;;;;5035496;28;20032;-75
2021/10/06 01:58:44;;;;;;;35.30;27.17;;;10.60;89.70;;;;;;5042730;28;20036;-75
2021/10/06 02:01:09;;;;;;;22.20;17.30;;;10.60;90.20;;;;;;5054289;28;20117;-75
2021/10/06 02:03:35;;;;;;;19.27;15.52;;;10.60;90.50;;;;;;5053383;28;20371;-75
2021/10/06 02:06:01;;;;;;;12.77;8.75;;;10.70;90.60;;;;;;5061837;28;20025;-75
2021/10/06 02:08:27;;;;;;;11.13;8.63;;;10.70;90.80;;;;;;5060322;28;20451;-75
2021/10/06 02:10:53;;;;;;;14.68;8.98;;;10.70;90.80;;;;;;5034976;28;20434;-75
2021/10/06 02:13:18;;;;;;;15.70;9.15;;;10.70;90.90;;;;;;5050901;28;20061;-75
2021/10/06 02:15:46;;;;;;;13.30;8.30;;;10.70;91.00;;;;;;5060713;28;20029;-75
2021/10/06 02:18:11;;;;;;;13.68;9.40;;;10.70;90.90;;;;;;5035323;28;20399;-75
2021/10/06 02:20:37;;;;;;;10.75;7.05;;;10.70;90.80;;;;;;5039820;28;20036;-75
2021/10/06 02:23:03;;;;;;;11.27;7.93;;;10.70;90.70;;;;;;5046144;28;20032;-75
2021/10/06 02:25:29;;;;;;;11.98;8.98;;;10.70;90.60;;;;;;5037694;28;20024;-75
2021/10/06 02:27:54;;;;;;;10.98;8.70;;;10.70;90.70;;;;;;5057785;28;20029;-74
2021/10/06 02:30:20;;;;;;;11.30;8.43;;;10.60;90.70;;;;;;5034683;28;20025;-75
2021/10/06 02:32:46;;;;;;;11.10;8.13;;;10.60;90.90;;;;;;5035113;28;20482;-75
2021/10/06 02:35:11;;;;;;;12.27;8.02;;;10.60;90.90;;;;;;5061261;28;20029;-75
2021/10/06 02:37:38;;;;;;;11.85;7.75;;;10.60;91.00;;;;;;5071253;28;20466;-75
2021/10/06 02:40:12;;;;;;;10.77;8.40;;;10.60;91.10;;;;;;5045951;28;20033;-75
2021/10/06 02:42:38;;;;;;;10.38;7.47;;;10.50;91.20;;;;;;5064038;28;20028;-75
2021/10/06 02:45:10;;;;;;;11.73;7.68;;;10.50;91.20;;;;;;5052159;28;20029;-75
2021/10/06 02:47:36;;;;;;;14.30;7.70;;;10.50;91.50;;;;;;5040082;28;20506;-75
2021/10/06 02:50:03;;;;;;;13.13;8.43;;;10.50;91.30;;;;;;5069384;28;20459;-75
2021/10/06 02:52:28;;;;;;;12.57;8.77;;;10.50;91.40;;;;;;5058701;28;20021;-76
2021/10/06 02:54:55;;;;;;;14.77;9.50;;;10.50;91.40;;;;;;5038205;28;20139;-75
2021/10/06 02:57:20;;;;;;;20.42;10.43;;;10.50;91.50;;;;;;5056131;28;20024;-75
2021/10/06 02:59:46;;;;;;;12.75;9.95;;;10.50;91.50;;;;;;5055947;28;20110;-76
2021/10/06 03:02:11;;;;;;;13.40;9.27;;;10.50;91.60;;;;;;5056121;28;20052;-75
2021/10/06 03:04:37;;;;;;;12.90;9.15;;;10.50;91.60;;;;;;5055507;28;20025;-76
2021/10/06 03:07:03;;;;;;;13.63;8.93;;;10.40;91.60;;;;;;5055888;28;20087;-75
2021/10/06 03:09:28;;;;;;;18.38;11.65;;;10.50;91.60;;;;;;5052532;28;20090;-75
2021/10/06 03:11:54;;;;;;;12.55;9.60;;;10.40;91.40;;;;;;5058739;28;20463;-75
2021/10/06 03:14:20;;;;;;;10.25;7.30;;;10.40;91.30;;;;;;5067023;28;20021;-76
2021/10/06 03:16:45;;;;;;;13.02;8.10;;;10.40;91.10;;;;;;5074245;28;20062;-75
2021/10/06 03:19:11;;;;;;;16.33;9.15;;;10.40;91.10;;;;;;5055798;28;20469;-75
2021/10/06 03:21:37;;;;;;;11.23;7.90;;;10.40;91.10;;;;;;5037876;28;20078;-75
2021/10/06 03:24:03;;;;;;;12.57;7.35;;;10.40;91.00;;;;;;5039754;28;20481;-77
2021/10/06 03:26:28;;;;;;;12.57;8.30;;;10.40;91.10;;;;;;5047600;28;20126;-75
2021/10/06 03:28:54;;;;;;;15.45;7.75;;;10.30;90.90;;;;;;5056079;28;20144;-76
2021/10/06 03:31:20;;;;;;;9.93;7.35;;;10.30;91.00;;;;;;5045064;28;20459;-75
2021/10/06 03:33:45;;;;;;;10.82;7.32;;;10.30;91.00;;;;;;5037445;28;20025;-75
2021/10/06 03:36:11;;;;;;;13.82;7.53;;;10.30;91.10;;;;;;5038535;28;20029;-75
2021/10/06 03:38:37;;;;;;;12.90;8.25;;;10.30;91.10;;;;;;5061678;28;20082;-76
2021/10/06 03:41:02;;;;;;;13.95;8.30;;;10.30;91.10;;;;;;5063617;28;20045;-77
2021/10/06 03:43:28;;;;;;;12.38;7.88;;;10.30;91.10;;;;;;5054979;28;20464;-76
2021/10/06 03:45:54;;;;;;;11.43;7.65;;;10.30;91.20;;;;;;5062100;28;20090;-75
2021/10/06 03:48:19;;;;;;;14.60;8.20;;;10.20;91.20;;;;;;5064182;28;20090;-75
2021/10/06 03:50:45;;;;;;;16.33;10.15;;;10.20;91.30;;;;;;5042170;28;20028;-76
2021/10/06 03:53:12;;;;;;;17.33;11.27;;;10.20;91.40;;;;;;5039562;28;20036;-75
2021/10/06 03:55:39;;;;;;;15.73;9.07;;;10.20;91.50;;;;;;5066206;28;20025;-75
2021/10/06 03:58:05;;;;;;;12.95;7.72;;;10.20;91.30;;;;;;5065933;28;20024;-74
2021/10/06 04:00:31;;;;;;;11.95;8.15;;;10.20;91.00;;;;;;5037097;28;20451;-75
2021/10/06 04:02:56;;;;;;;10.82;7.70;;;10.20;90.90;;;;;;5036920;28;20028;-75
2021/10/06 04:05:22;;;;;;;12.07;7.90;;;10.20;90.80;;;;;;5052809;28;20364;-75
2021/10/06 04:07:48;;;;;;;13.00;7.57;;;10.20;90.70;;;;;;5054476;28;20045;-75
2021/10/06 04:10:13;;;;;;;10.73;7.32;;;10.20;90.90;;;;;;5062041;28;20029;-75
2021/10/06 04:12:39;;;;;;;12.85;8.18;;;10.30;90.60;;;;;;5038501;28;20070;-75
2021/10/06 04:15:06;;;;;;;11.73;7.65;;;10.40;90.40;;;;;;5047160;28;20071;-77
2021/10/06 04:17:31;;;;;;;13.07;7.60;;;10.50;90.50;;;;;;5050058;28;20105;-88
2021/10/06 04:19:57;;;;;;;16.05;7.65;;;10.60;90.10;;;;;;5054843;28;20080;-83
2021/10/06 04:22:23;;;;;;;14.15;8.25;;;10.60;89.90;;;;;;5059657;28;20399;-85
2021/10/06 04:24:49;;;;;;;11.52;7.60;;;10.70;90.00;;;;;;5039245;28;20028;-79
2021/10/06 04:27:15;;;;;;;11.95;7.55;;;10.90;89.50;;;;;;5042806;28;20043;-74
2021/10/06 04:29:40;;;;;;;11.02;7.25;;;11.10;88.90;;;;;;5064725;28;20032;-74
2021/10/06 04:32:06;;;;;;;14.68;7.90;;;11.30;88.30;;;;;;5062930;28;20025;-73
2021/10/06 04:34:32;;;;;;;15.35;8.57;;;11.50;87.30;;;;;;5062140;28;20028;-73
2021/10/06 04:36:57;;;;;;;11.98;6.90;;;11.70;86.50;;;;;;5062075;28;20114;-73
2021/10/06 04:39:23;;;;;;;10.35;6.65;;;11.90;85.00;;;;;;5055565;28;20048;-73
2021/10/06 04:41:49;;;;;;;10.35;6.97;;;12.00;83.90;;;;;;5065817;28;20056;-73
2021/10/06 04:44:15;;;;;;;14.75;6.90;;;12.20;83.00;;;;;;5066090;28;20482;-73
2021/10/06 04:46:41;;;;;;;12.68;7.20;;;12.40;82.00;;;;;;5047458;28;20086;-73
2021/10/06 04:49:06;;;;;;;12.57;6.50;;;12.70;81.20;;;;;;5061710;28;20036;-73
2021/10/06 04:51:32;;;;;;;11.65;6.30;;;12.80;80.40;;;;;;5056994;28;20483;-72
2021/10/06 04:53:58;;;;;;;9.20;6.40;;;13.00;79.40;;;;;;5066373;28;20025;-72
2021/10/06 04:56:24;;;;;;;11.50;7.30;;;13.20;78.60;;;;;;5063209;28;20033;-73
2021/10/06 04:58:49;;;;;;;10.20;6.63;;;13.50;77.70;;;;;;5055723;28;20060;-73
2021/10/06 05:01:15;;;;;;;14.88;7.40;;;13.70;76.70;;;;;;5041047;28;20085;-73
2021/10/06 05:03:41;;;;;;;11.35;6.70;;;13.90;75.90;;;;;;5066407;28;20052;-73
2021/10/06 05:06:07;;;;;;;12.00;7.72;;;14.10;75.00;;;;;;5041443;28;20032;-72
2021/10/06 05:08:35;;;;;;;9.45;6.80;;;14.30;74.10;;;;;;5067112;28;20036;-73
2021/10/06 05:11:01;;;;;;;14.45;6.93;;;14.50;73.40;;;;;;5061023;28;20032;-73
2021/10/06 05:13:26;;;;;;;16.83;6.90;;;14.70;72.40;;;;;;5041253;28;20055;-73
2021/10/06 05:15:52;;;;;;;14.00;6.65;;;14.90;71.70;;;;;;5065672;28;20115;-72
2021/10/06 05:18:18;;;;;;;12.27;6.18;;;15.00;70.60;;;;;;5069400;28;20024;-72
2021/10/06 05:20:43;;;;;;;11.88;6.65;;;15.00;70.40;;;;;;5061145;28;20033;-83
2021/10/06 05:23:09;;;;;;;13.02;6.38;;;14.90;70.30;;;;;;5042331;28;20060;-84
2021/10/06 05:25:35;;;;;;;13.95;5.78;;;15.00;70.50;;;;;;5068465;28;20033;-86
2021/10/06 05:28:02;;;;;;;15.45;6.47;;;15.10;69.70;;;;;;5064323;28;20107;-87
2021/10/06 05:30:28;;;;;;;21.80;6.75;;;15.20;69.60;;;;;;5049924;28;20028;-86
2021/10/06 05:32:54;;;;;;;16.13;6.22;;;15.30;69.30;;;;;;5035529;28;20029;-86
2021/10/06 05:35:20;;;;;;;12.23;6.03;;;15.50;69.00;;;;;;5035218;28;20067;-91
2021/10/06 05:37:47;;;;;;;10.25;5.55;;;15.70;68.20;;;;;;5053335;28;20079;-81
2021/10/06 05:40:14;;;;;;;10.07;5.38;;;15.70;67.40;;;;;;5052747;28;20426;-79
2021/10/06 05:42:40;;;;;;;13.52;6.35;;;15.80;67.40;;;;;;5049641;28;20024;-88
2021/10/06 05:45:06;;;;;;;12.85;5.75;;;16.00;67.30;;;;;;5060894;28;20033;-82
2021/10/06 05:47:32;;;;;;;12.07;6.18;;;16.20;66.40;;;;;;5042277;28;20028;-76
2021/10/06 05:49:58;;;;;;;21.10;6.57;;;16.40;66.10;;;;;;5061933;28;20460;-81
2021/10/06 05:52:24;;;;;;;10.57;6.43;;;16.40;64.80;;;;;;5056907;28;20383;-82
2021/10/06 05:54:50;;;;;;;14.05;6.20;;;16.50;64.90;;;;;;5060828;28;20036;-80
2021/10/06 05:57:16;;;;;;;14.15;7.35;;;16.50;64.50;;;;;;5063367;28;20040;-82
2021/10/06 05:59:42;;;;;;;14.70;7.75;;;16.50;64.60;;;;;;5052417;28;20525;-80
2021/10/06 06:02:07;;;;;;;11.25;6.57;;;16.60;64.70;;;;;;5043801;28;20033;-74
2021/10/06 06:04:33;;;;;;;13.35;6.57;;;16.80;64.20;;;;;;5034663;28;20538;-77
2021/10/06 06:06:59;;;;;;;9.95;5.90;;;16.90;62.90;;;;;;5062358;28;20049;-78
2021/10/06 06:09:25;;;;;;;12.20;6.50;;;17.00;61.90;;;;;;5038744;28;20060;-79
2021/10/06 06:11:51;;;;;;;17.90;6.25;;;17.10;61.80;;;;;;5045705;28;20382;-83
2021/10/06 06:14:18;;;;;;;9.38;6.00;;;17.10;61.00;;;;;;5037222;28;20029;-83
2021/10/06 06:16:44;;;;;;;9.90;5.32;;;17.20;60.70;;;;;;5063116;28;20023;-79
2021/10/06 06:19:10;;;;;;;8.57;5.07;;;17.50;60.40;;;;;;5073638;28;20036;-82
2021/10/06 06:21:35;;;;;;;9.45;5.50;;;17.60;58.60;;;;;;5072422;28;20398;-82
2021/10/06 06:24:01;;;;;;;10.88;5.90;;;17.40;58.60;;;;;;5065610;28;20032;-83
2021/10/06 06:26:27;;;;;;;9.45;5.50;;;17.50;59.50;;;;;;5048135;28;20024;-81
2021/10/06 06:28:52;;;;;;;14.07;7.85;;;17.70;59.80;;;;;;5066326;28;20024;-79
2021/10/06 06:31:18;;;;;;;10.02;7.07;;;17.80;59.30;;;;;;5063826;28;20498;-83
2021/10/06 06:33:45;;;;;;;13.00;5.93;;;17.70;59.10;;;;;;5055933;28;20475;-79
2021/10/06 06:36:11;;;;;;;10.07;6.28;;;17.60;59.70;;;;;;5045068;28;20520;-81
2021/10/06 06:38:37;;;;;;;13.02;5.50;;;17.60;59.70;;;;;;5070596;28;20108;-89
2021/10/06 06:41:03;;;;;;;13.35;5.90;;;17.50;60.00;;;;;;5067756;28;20471;-81
2021/10/06 06:43:29;;;;;;;12.60;6.13;;;17.50;60.00;;;;;;5048736;28;20024;-80
2021/10/06 06:45:55;;;;;;;15.85;6.57;;;17.10;59.50;;;;;;5063842;28;20183;-76
2021/10/06 06:48:21;;;;;;;9.48;6.40;;;16.60;61.00;;;;;;5067458;28;20024;-76
2021/10/06 06:50:52;;;;;;;10.88;5.80;;;16.40;62.10;;;;;;5060380;28;20020;-75
2021/10/06 06:53:19;;;;;;;11.23;6.03;;;16.10;62.10;;;;;;5052063;28;20025;-68
2021/10/06 06:55:46;;;;;;;11.05;5.40;;;15.70;62.70;;;;;;5081978;28;20397;-85
2021/10/06 06:58:11;;;;;;;12.35;5.88;;;15.70;63.20;;;;;;5077002;28;20016;-75
2021/10/06 07:00:37;;;;;;;13.82;5.85;;;15.90;64.30;;;;;;5066859;28;20032;-83
2021/10/06 07:03:03;;;;;;;11.25;5.70;;;16.20;62.50;;;;;;5060820;28;20033;-76
2021/10/06 07:05:29;;;;;;;10.13;5.43;;;16.40;61.90;;;;;;5068963;28;20079;-70
2021/10/06 07:07:54;;;;;;;9.98;5.10;;;16.90;61.40;;;;;;5055720;28;20487;-70
2021/10/06 07:10:20;;;;;;;11.90;5.03;;;17.00;59.70;;;;;;5069789;28;20043;-70
2021/10/06 07:12:46;;;;;;;10.65;5.38;;;17.10;59.50;;;;;;5057126;28;20062;-71
2021/10/06 07:15:11;;;;;;;12.50;6.40;;;17.40;59.00;;;;;;5072246;28;20020;-74
2021/10/06 07:17:37;;;;;;;10.60;6.78;;;17.60;58.40;;;;;;5048364;28;20028;-70
2021/10/06 07:20:04;;;;;;;12.45;7.55;;;17.90;57.70;;;;;;5062246;28;20569;-71
2021/10/06 07:22:29;;;;;;;13.73;6.07;;;18.00;57.00;;;;;;5065550;28;20035;-73
2021/10/06 07:24:55;;;;;;;11.43;5.53;;;18.00;56.60;;;;;;5072945;28;20037;-71
2021/10/06 07:27:21;;;;;;;9.95;5.28;;;17.90;56.70;;;;;;5055551;28;20025;-70
2021/10/06 07:29:46;;;;;;;7.53;5.10;;;18.00;56.70;;;;;;5069604;28;20035;-70
2021/10/06 07:32:12;;;;;;;9.20;5.00;;;18.00;56.30;;;;;;5064194;28;20428;-70
2021/10/06 07:34:39;;;;;;;12.23;6.07;;;18.10;55.70;;;;;;5055260;28;20040;-70
2021/10/06 07:37:04;;;;;;;14.00;7.05;;;18.20;56.00;;;;;;5037616;28;20052;-70
2021/10/06 07:39:30;;;;;;;10.27;5.75;;;18.50;55.30;;;;;;5063013;28;20479;-70
2021/10/06 07:41:56;;;;;;;10.40;5.32;;;18.60;55.20;;;;;;5043636;28;20087;-70
2021/10/06 07:44:21;;;;;;;9.32;5.30;;;18.70;54.50;;;;;;5066148;28;20025;-70
2021/10/06 07:46:47;;;;;;;12.32;5.43;;;18.60;54.00;;;;;;5062164;28;20027;-70
2021/10/06 07:49:13;;;;;;;11.30;5.65;;;18.40;54.00;;;;;;5054759;28;20033;-71
2021/10/06 07:51:39;;;;;;;14.35;5.10;;;18.40;53.80;;;;;;5063672;28;20028;-71
2021/10/06 07:54:05;;;;;;;12.90;4.70;;;18.30;53.10;;;;;;5055003;28;20028;-70
2021/10/06 07:56:30;;;;;;;9.27;4.80;;;18.10;52.60;;;;;;5054962;28;20115;-71
2021/10/06 07:58:56;;;;;;;9.45;4.68;;;18.20;52.60;;;;;;5055124;28;20488;-70
2021/10/06 08:01:22;;;;;;;12.02;4.97;;;18.30;52.20;;;;;;5044896;28;20497;-70
2021/10/06 08:03:48;;;;;;;10.20;4.45;;;18.30;52.20;;;;;;5038701;28;20025;-70
2021/10/06 08:06:13;;;;;;;8.60;3.70;;;18.40;52.20;;;;;;5066235;28;20150;-70
2021/10/06 08:08:39;;;;;;;11.65;4.47;;;18.60;51.10;;;;;;5039700;28;20037;-71
2021/10/06 08:11:05;;;;;;;12.23;5.50;;;18.60;50.00;;;;;;5066246;28;20024;-70
2021/10/06 08:13:31;;;;;;;12.80;5.03;;;18.60;49.70;;;;;;5066007;28;20020;-71
2021/10/06 08:15:57;;;;;;;10.80;4.95;;;18.80;49.90;;;;;;5057315;28;20056;-71
2021/10/06 08:18:23;;;;;;;13.00;6.95;;;19.00;49.30;;;;;;5042856;28;20486;-71
2021/10/06 08:20:53;;;;;;;6.38;4.30;;;18.90;49.20;;;;;;5054480;28;20041;-72
2021/10/06 08:23:20;;;;;;;10.00;4.68;;;18.90;48.30;;;;;;5044670;28;20025;-71
2021/10/06 08:25:47;;;;;;;10.40;5.82;;;18.70;48.00;;;;;;5044846;28;20063;-72
2021/10/06 08:28:14;;;;;;;15.82;5.78;;;18.50;48.70;;;;;;5062470;28;20029;-71
2021/10/06 08:30:40;;;;;;;21.27;9.27;;;18.70;48.80;;;;;;5050748;28;20032;-71
2021/10/06 08:33:06;;;;;;;8.15;4.05;;;18.90;48.30;;;;;;5070856;28;20524;-70
2021/10/06 08:35:32;;;;;;;16.50;7.55;;;19.00;47.70;;;;;;5066555;28;20028;-71
2021/10/06 08:37:59;;;;;;;12.52;5.68;;;18.80;47.70;;;;;;5065967;28;20083;-71
2021/10/06 08:40:24;;;;;;;8.35;3.83;;;18.60;48.80;;;;;;5046407;28;20048;-70
2021/10/06 08:42:50;;;;;;;8.00;4.00;;;18.70;48.60;;;;;;5065646;28;20470;-70
2021/10/06 08:45:16;;;;;;;9.32;4.60;;;18.80;48.60;;;;;;5063638;28;20029;-73
2021/10/06 08:47:42;;;;;;;6.88;3.97;;;19.00;47.60;;;;;;5036182;28;20422;-71
2021/10/06 08:50:11;;;;;;;17.63;4.72;;;19.00;47.40;;;;;;5038979;28;20029;-73
2021/10/06 08:52:37;;;;;;;9.00;3.78;;;19.00;46.80;;;;;;5057667;28;20077;-70
2021/10/06 08:55:04;;;;;;;9.73;4.40;;;19.00;46.40;;;;;;5073963;28;20421;-71
2021/10/06 08:57:30;;;;;;;8.07;3.60;;;18.90;46.30;;;;;;5054305;28;20029;-71
2021/10/06 08:59:55;;;;;;;11.02;4.00;;;18.80;46.10;;;;;;5059484;28;20039;-72
2021/10/06 09:02:21;;;;;;;9.38;4.03;;;18.70;46.30;;;;;;5063725;28;20516;-71
2021/10/06 09:04:50;;;;;;;10.02;4.00;;;18.80;46.40;;;;;;5062223;28;20028;-70
2021/10/06 09:07:16;;;;;;;8.98;4.50;;;18.90;46.40;;;;;;5053501;28;20049;-71
2021/10/06 09:09:42;;;;;;;11.27;7.22;;;19.00;46.10;;;;;;5056305;28;20029;-71
2021/10/06 09:12:12;;;;;;;10.95;4.80;;;19.00;46.20;;;;;;5067051;28;20100;-71
2021/10/06 09:14:43;;;;;;;9.75;3.90;;;19.00;46.80;;;;;;5055027;28;20094;-71
2021/10/06 09:17:17;;;;;;;15.85;6.65;;;19.20;46.20;;;;;;5049353;28;20040;-71
2021/10/06 09:19:45;;;;;;;8.45;3.60;;;19.40;46.30;;;;;;5069668;28;20060;-71
2021/10/06 09:22:23;;;;;;;8.25;3.53;;;19.60;45.70;;;;;;5053670;28;20047;-70
2021/10/06 09:24:56;;;;;;;5.78;3.85;;;19.80;45.40;;;;;;5043445;28;20036;-70
2021/10/06 09:27:45;;;;;;;6.72;3.92;;;20.00;45.10;;;;;;5035681;28;20407;-71
2021/10/06 09:30:13;;;;;;;8.18;4.93;;;20.30;44.40;;;;;;5061994;28;20032;-70
2021/10/06 09:32:45;;;;;;;7.78;3.72;;;20.40;44.30;;;;;;5043641;28;20394;-70
2021/10/06 09:35:16;;;;;;;7.75;3.60;;;20.30;43.60;;;;;;5050401;28;20037;-70
2021/10/06 09:37:45;;;;;;;4.65;2.90;;;20.40;43.50;;;;;;5069305;28;20028;-74
2021/10/06 09:40:13;;;;;;;9.05;3.20;;;20.40;42.90;;;;;;5047309;28;20386;-70
2021/10/06 09:42:44;;;;;;;7.45;3.72;;;20.40;43.00;;;;;;5054548;28;20386;-70
2021/10/06 09:45:19;;;;;;;6.53;3.42;;;20.40;42.00;;;;;;5035138;28;20025;-70
2021/10/06 09:48:04;;;;;;;6.33;3.20;;;20.40;42.10;;;;;;5060585;28;20029;-70
2021/10/06 09:50:31;;;;;;;5.35;3.22;;;20.40;42.10;;;;;;5054647;28;20283;-70
2021/10/06 09:53:14;;;;;;;9.25;4.03;;;20.50;41.90;;;;;;5056766;28;20067;-70
2021/10/06 09:55:44;;;;;;;7.05;3.88;;;20.50;41.80;;;;;;5046283;28;20036;-70
2021/10/06 09:58:11;;;;;;;5.32;3.05;;;20.60;41.30;;;;;;5058461;28;20466;-70
2021/10/06 10:00:38;;;;;;;9.32;3.80;;;20.50;41.20;;;;;;5044778;28;20041;-71
2021/10/06 10:03:05;;;;;;;7.60;4.13;;;20.50;41.60;;;;;;5074260;28;20104;-70
2021/10/06 10:05:32;;;;;;;6.72;3.15;;;20.60;41.90;;;;;;5068463;28;20024;-71
2021/10/06 10:07:57;;;;;;;8.32;3.38;;;20.80;41.40;;;;;;5068613;28;20161;-69
2021/10/06 10:10:23;;;;;;;7.40;3.20;;;20.80;41.40;;;;;;5059742;28;20115;-70
2021/10/06 10:12:49;;;;;;;7.70;4.95;;;20.80;40.60;;;;;;5043997;28;20040;-70
2021/10/06 10:15:19;;;;;;;7.88;3.90;;;20.90;40.20;;;;;;5056568;28;20486;-70
2021/10/06 10:17:50;;;;;;;6.80;3.58;;;20.90;39.70;;;;;;5056432;28;20053;-69
2021/10/06 10:20:16;;;;;;;10.60;4.10;;;21.00;39.20;;;;;;5056585;28;20479;-70
2021/10/06 10:22:46;;;;;;;9.85;4.22;;;21.00;39.30;;;;;;5056835;28;20029;-70
2021/10/06 10:25:26;;;;;;;8.15;4.03;;;20.70;39.40;;;;;;5046851;28;20029;-70
2021/10/06 10:28:00;;;;;;;11.77;5.03;;;20.70;39.30;;;;;;5052531;28;20100;-70
2021/10/06 10:30:27;;;;;;;9.35;4.50;;;20.50;39.30;;;;;;5058305;28;20040;-69
2021/10/06 10:32:52;;;;;;;9.77;4.82;;;20.40;39.60;;;;;;5070710;28;20487;-69
2021/10/06 10:35:31;;;;;;;9.05;4.15;;;20.60;39.90;;;;;;5055938;28;20045;-70
2021/10/06 10:38:00;;;;;;;10.05;3.20;;;20.90;39.00;;;;;;5061451;28;20481;-69
2021/10/06 10:40:34;;;;;;;13.25;5.35;;;20.80;38.30;;;;;;5067121;28;20071;-69
2021/10/06 10:43:02;;;;;;;4.70;3.07;;;20.60;38.80;;;;;;5070228;28;20529;-69
2021/10/06 10:45:36;;;;;;;8.85;3.20;;;20.40;39.10;;;;;;5038365;28;20350;-69
2021/10/06 10:48:03;;;;;;;6.13;3.00;;;20.30;40.10;;;;;;5061790;28;20081;-69
2021/10/06 10:50:44;;;;;;;5.60;2.80;;;20.10;39.50;;;;;;5047951;28;20116;-69
2021/10/06 10:53:10;;;;;;;5.78;3.08;;;20.00;39.10;;;;;;5064262;28;20474;-69
2021/10/06 10:55:54;;;;;;;4.90;2.92;;;19.80;39.10;;;;;;5056479;28;20025;-70
2021/10/06 10:58:43;;;;;;;6.07;3.47;;;19.80;39.60;;;;;;5054135;28;20035;-70
2021/10/06 11:01:13;;;;;;;5.68;2.80;;;19.80;39.50;;;;;;5055999;28;20087;-71
2021/10/06 11:04:23;;;;;;;12.48;8.25;;;19.80;38.80;;;;;;5038291;28;20056;-70
2021/10/06 11:07:10;;;;;;;9.95;4.60;;;19.70;39.40;;;;;;4957332;28;20426;-70
2021/10/06 11:09:37;;;;;;;10.38;4.97;;;19.80;39.20;;;;;;4957384;28;20045;-71
2021/10/06 11:12:07;;;;;;;17.10;11.13;;;19.80;39.40;;;;;;5022147;28;20041;-70
2021/10/06 11:14:35;;;;;;;13.43;6.88;;;19.90;39.40;;;;;;5055902;28;20043;-70
2021/10/06 11:17:15;;;;;;;10.35;4.03;;;20.00;38.90;;;;;;5063502;28;20364;-72
2021/10/06 11:19:46;;;;;;;7.20;3.20;;;19.90;38.10;;;;;;5063761;28;20048;-73
2021/10/06 11:22:38;;;;;;;5.07;2.60;;;19.50;37.20;;;;;;5045045;28;20031;-71
2021/10/06 11:25:07;;;;;;;6.32;2.55;;;19.30;37.80;;;;;;5040866;28;20117;-70
2021/10/06 11:27:51;;;;;;;8.00;3.63;;;19.40;38.10;;;;;;5055353;28;20471;-72
2021/10/06 11:30:19;;;;;;;17.58;7.15;;;19.30;37.70;;;;;;5045737;28;20036;-71
2021/10/06 11:32:52;;;;;;;6.43;3.00;;;19.30;37.60;;;;;;5055264;28;20522;-71
2021/10/06 11:35:19;;;;;;;6.35;3.00;;;19.20;37.00;;;;;;5066558;28;20385;-71
2021/10/06 11:37:44;;;;;;;8.35;3.10;;;19.20;37.00;;;;;;5059845;28;20029;-70
2021/10/06 11:40:15;;;;;;;6.78;3.25;;;19.20;36.50;;;;;;5046649;28;20487;-70
2021/10/06 11:42:41;;;;;;;5.65;2.20;;;19.20;36.50;;;;;;5042767;28;20033;-70
2021/10/06 11:45:18;;;;;;;7.57;2.30;;;19.20;36.00;;;;;;5063225;28;20029;-71
2021/10/06 11:47:44;;;;;;;6.05;3.20;;;18.90;36.50;;;;;;5055268;28;20031;-71
2021/10/06 11:50:10;;;;;;;10.45;3.15;;;18.70;37.00;;;;;;5071088;28;20111;-70
2021/10/06 11:52:36;;;;;;;5.35;2.85;;;18.60;37.10;;;;;;5059201;28;20491;-71
2021/10/06 11:55:02;;;;;;;8.70;3.40;;;18.40;37.00;;;;;;5066174;28;20072;-69
2021/10/06 11:57:28;;;;;;;6.88;3.00;;;18.20;37.90;;;;;;5055064;28;20068;-71
2021/10/06 11:59:53;;;;;;;9.27;3.13;;;18.10;38.00;;;;;;5054954;28;20060;-71
2021/10/06 12:02:23;;;;;;;9.57;3.15;;;17.90;38.50;;;;;;5036939;28;20029;-70
2021/10/06 12:04:51;;;;;;;12.90;7.57;;;17.80;38.50;;;;;;5049834;28;20020;-70
2021/10/06 12:07:22;;;;;;;12.13;6.05;;;17.50;38.30;;;;;;5027826;28;20390;-72
2021/10/06 12:09:58;;;;;;;7.60;2.83;;;17.10;38.70;;;;;;5014001;28;20030;-70
2021/10/06 12:12:30;;;;;;;;;;;16.90;38.60;;;;;;5015451;28;20053;-72
2021/10/06 12:15:06;;;;;;;13.43;4.28;;;16.60;39.40;;;;;;5028090;28;19913;-71
2021/10/06 12:17:35;;;;;;;5.75;3.58;;;16.30;40.20;;;;;;5013645;28;20442;-71
2021/10/06 12:20:04;;;;;;;12.20;3.65;;;16.10;40.70;;;;;;5019145;28;20037;-71
2021/10/06 12:22:57;;;;;;;8.30;3.40;;;16.00;41.10;;;;;;5033617;28;20041;-76
2021/10/06 12:25:26;;;;;;;14.50;3.75;;;15.70;41.30;;;;;;5024637;28;20083;-71
2021/10/06 12:28:07;;;;;;;8.88;3.65;;;15.40;42.10;;;;;;5030001;28;20091;-71
2021/10/06 12:30:34;;;;;;;7.60;4.05;;;15.30;42.90;;;;;;5014424;28;20034;-71
2021/10/06 12:33:16;;;;;;;7.03;3.10;;;15.00;43.00;;;;;;5021173;28;20113;-71
2021/10/06 12:35:45;;;;;;;6.82;3.70;;;14.80;43.00;;;;;;5014859;28;20452;-76
2021/10/06 12:38:12;;;;;;;6.82;3.80;;;14.50;43.70;;;;;;5021791;28;20125;-71
2021/10/06 12:40:54;;;;;;;7.70;4.30;;;14.40;44.40;;;;;;5015117;28;20042;-71
2021/10/06 12:43:21;;;;;;;10.10;3.08;;;14.30;45.10;;;;;;5022632;28;20037;-71